sensor_id;sensor_type;location;lat;lon;timestamp;pressure;altitude;pressure_sealevel;temperature;humidity
76060;BME280;64759;52.220;5.170;2023-04-29T00:01:15;101463.50;;;10.45;81.29
76060;BME280;64759;52.220;5.170;2023-04-29T00:03:40;101467.84;;;10.45;81.39
76060;BME280;64759;52.220;5.170;2023-04-29T00:06:06;101468.53;;;10.47;80.84
76060;BME280;64759;52.220;5.170;2023-04-29T00:08:31;101476.56;;;10.44;81.49
76060;BME280;64759;52.220;5.170;2023-04-29T00:10:57;101476.56;;;10.44;81.21
76060;BME280;64759;52.220;5.170;2023-04-29T00:13:22;101482.09;;;10.39;81.33
76060;BME280;64759;52.220;5.170;2023-04-29T00:15:48;101482.44;;;10.46;81.26
76060;BME280;64759;52.220;5.170;2023-04-29T00:18:14;101478.94;;;10.36;81.11
76060;BME280;64759;52.220;5.170;2023-04-29T00:20:40;101478.00;;;10.37;80.99
76060;BME280;64759;52.220;5.170;2023-04-29T00:23:07;101480.25;;;10.30;81.59
76060;BME280;64759;52.220;5.170;2023-04-29T00:25:32;101488.34;;;10.37;81.04
76060;BME280;64759;52.220;5.170;2023-04-29T00:27:58;101495.31;;;10.36;81.13
76060;BME280;64759;52.220;5.170;2023-04-29T00:30:27;101493.16;;;10.41;81.08
76060;BME280;64759;52.220;5.170;2023-04-29T00:32:53;101499.03;;;10.43;80.89
76060;BME280;64759;52.220;5.170;2023-04-29T00:35:19;101492.22;;;10.42;80.92
76060;BME280;64759;52.220;5.170;2023-04-29T00:37:45;101495.31;;;10.36;80.76
76060;BME280;64759;52.220;5.170;2023-04-29T00:40:10;101499.53;;;10.37;80.81
76060;BME280;64759;52.220;5.170;2023-04-29T00:42:37;101502.69;;;10.41;80.75
76060;BME280;64759;52.220;5.170;2023-04-29T00:45:03;101503.88;;;10.37;80.90
76060;BME280;64759;52.220;5.170;2023-04-29T00:47:29;101511.84;;;10.45;80.64
76060;BME280;64759;52.220;5.170;2023-04-29T00:49:54;101503.63;;;10.40;80.49
76060;BME280;64759;52.220;5.170;2023-04-29T00:52:21;101509.19;;;10.35;80.79
76060;BME280;64759;52.220;5.170;2023-04-29T00:54:47;101514.13;;;10.38;80.81
76060;BME280;64759;52.220;5.170;2023-04-29T00:57:13;101512.81;;;10.44;80.96
76060;BME280;64759;52.220;5.170;2023-04-29T00:59:39;101519.63;;;10.45;80.94
76060;BME280;64759;52.220;5.170;2023-04-29T01:02:05;101515.66;;;10.41;80.94
76060;BME280;64759;52.220;5.170;2023-04-29T01:04:30;101520.59;;;10.44;80.85
76060;BME280;64759;52.220;5.170;2023-04-29T01:07:16;101520.31;;;10.47;80.54
76060;BME280;64759;52.220;5.170;2023-04-29T01:18:16;101527.31;;;10.35;80.59
76060;BME280;64759;52.220;5.170;2023-04-29T01:20:45;101522.97;;;10.36;80.93
76060;BME280;64759;52.220;5.170;2023-04-29T01:23:10;101529.66;;;10.38;80.42
76060;BME280;64759;52.220;5.170;2023-04-29T01:25:38;101537.66;;;10.35;80.85
76060;BME280;64759;52.220;5.170;2023-04-29T01:36:07;101536.47;;;10.39;80.81
76060;BME280;64759;52.220;5.170;2023-04-29T01:38:48;101548.47;;;10.40;80.39
76060;BME280;64759;52.220;5.170;2023-04-29T01:41:25;101545.88;;;10.40;80.52
76060;BME280;64759;52.220;5.170;2023-04-29T01:44:02;101546.81;;;10.39;81.00
76060;BME280;64759;52.220;5.170;2023-04-29T01:46:29;101552.00;;;10.39;80.61
76060;BME280;64759;52.220;5.170;2023-04-29T01:48:57;101556.25;;;10.40;80.67
76060;BME280;64759;52.220;5.170;2023-04-29T01:51:23;101550.59;;;10.46;80.29
76060;BME280;64759;52.220;5.170;2023-04-29T01:53:49;101555.75;;;10.46;80.02
76060;BME280;64759;52.220;5.170;2023-04-29T01:56:14;101546.03;;;10.39;80.53
76060;BME280;64759;52.220;5.170;2023-04-29T01:58:58;101550.47;;;10.37;80.30
76060;BME280;64759;52.220;5.170;2023-04-29T02:01:44;101551.06;;;10.40;80.24
76060;BME280;64759;52.220;5.170;2023-04-29T02:04:10;101560.13;;;10.35;80.57
76060;BME280;64759;52.220;5.170;2023-04-29T02:06:36;101560.97;;;10.35;80.42
76060;BME280;64759;52.220;5.170;2023-04-29T02:09:03;101557.31;;;10.38;80.36
76060;BME280;64759;52.220;5.170;2023-04-29T02:11:30;101563.06;;;10.41;80.22
76060;BME280;64759;52.220;5.170;2023-04-29T02:13:56;101567.44;;;10.41;80.41
76060;BME280;64759;52.220;5.170;2023-04-29T02:16:23;101569.78;;;10.33;80.15
76060;BME280;64759;52.220;5.170;2023-04-29T02:18:56;101571.56;;;10.32;80.61
76060;BME280;64759;52.220;5.170;2023-04-29T02:21:21;101583.06;;;10.39;80.12
76060;BME280;64759;52.220;5.170;2023-04-29T02:23:46;101572.84;;;10.38;80.05
76060;BME280;64759;52.220;5.170;2023-04-29T02:26:13;101577.31;;;10.36;80.49
76060;BME280;64759;52.220;5.170;2023-04-29T02:28:39;101583.06;;;10.39;80.60
76060;BME280;64759;52.220;5.170;2023-04-29T02:31:05;101582.97;;;10.41;80.76
76060;BME280;64759;52.220;5.170;2023-04-29T02:33:31;101588.13;;;10.41;80.16
76060;BME280;64759;52.220;5.170;2023-04-29T02:35:57;101592.84;;;10.36;80.23
76060;BME280;64759;52.220;5.170;2023-04-29T02:38:24;101588.97;;;10.41;80.53
76060;BME280;64759;52.220;5.170;2023-04-29T02:40:49;101597.44;;;10.43;80.99
76060;BME280;64759;52.220;5.170;2023-04-29T02:43:15;101597.66;;;10.40;80.88
76060;BME280;64759;52.220;5.170;2023-04-29T02:45:40;101604.38;;;10.43;80.28
76060;BME280;64759;52.220;5.170;2023-04-29T02:48:06;101606.41;;;10.28;81.17
76060;BME280;64759;52.220;5.170;2023-04-29T02:50:32;101602.75;;;10.31;81.14
76060;BME280;64759;52.220;5.170;2023-04-29T02:52:58;101604.28;;;10.22;80.95
76060;BME280;64759;52.220;5.170;2023-04-29T02:55:24;101611.72;;;10.27;81.11
76060;BME280;64759;52.220;5.170;2023-04-29T02:57:49;101608.63;;;10.33;81.47
76060;BME280;64759;52.220;5.170;2023-04-29T03:00:15;101613.88;;;10.42;80.94
76060;BME280;64759;52.220;5.170;2023-04-29T03:02:42;101622.72;;;10.40;80.80
76060;BME280;64759;52.220;5.170;2023-04-29T03:05:07;101617.78;;;10.37;80.95
76060;BME280;64759;52.220;5.170;2023-04-29T03:07:33;101621.91;;;10.39;80.65
76060;BME280;64759;52.220;5.170;2023-04-29T03:09:59;101626.84;;;10.42;81.07
76060;BME280;64759;52.220;5.170;2023-04-29T03:12:24;101628.25;;;10.46;80.43
76060;BME280;64759;52.220;5.170;2023-04-29T03:14:50;101626.00;;;10.53;80.91
76060;BME280;64759;52.220;5.170;2023-04-29T03:17:16;101628.91;;;10.60;80.44
76060;BME280;64759;52.220;5.170;2023-04-29T03:19:42;101630.22;;;10.54;80.60
76060;BME280;64759;52.220;5.170;2023-04-29T03:22:07;101635.84;;;10.59;80.22
76060;BME280;64759;52.220;5.170;2023-04-29T03:24:38;101639.28;;;10.60;80.21
76060;BME280;64759;52.220;5.170;2023-04-29T03:27:04;101640.34;;;10.57;79.75
76060;BME280;64759;52.220;5.170;2023-04-29T03:29:31;101641.31;;;10.56;79.56
76060;BME280;64759;52.220;5.170;2023-04-29T03:31:57;101639.28;;;10.60;79.75
76060;BME280;64759;52.220;5.170;2023-04-29T03:34:24;101640.69;;;10.64;79.89
76060;BME280;64759;52.220;5.170;2023-04-29T03:37:04;101643.63;;;10.70;79.42
76060;BME280;64759;52.220;5.170;2023-04-29T03:39:30;101649.72;;;10.69;79.69
76060;BME280;64759;52.220;5.170;2023-04-29T03:41:57;101649.72;;;10.69;79.65
76060;BME280;64759;52.220;5.170;2023-04-29T03:44:24;101645.97;;;10.62;79.49
76060;BME280;64759;52.220;5.170;2023-04-29T03:46:50;101649.16;;;10.66;79.50
76060;BME280;64759;52.220;5.170;2023-04-29T03:49:16;101652.91;;;10.62;79.70
76060;BME280;64759;52.220;5.170;2023-04-29T03:51:42;101659.63;;;10.64;79.74
76060;BME280;64759;52.220;5.170;2023-04-29T03:54:14;101664.34;;;10.59;79.25
76060;BME280;64759;52.220;5.170;2023-04-29T03:56:40;101665.41;;;10.57;79.75
76060;BME280;64759;52.220;5.170;2023-04-29T03:59:06;101661.75;;;10.59;79.60
76060;BME280;64759;52.220;5.170;2023-04-29T04:01:31;101658.22;;;10.60;79.61
76060;BME280;64759;52.220;5.170;2023-04-29T04:03:57;101672.25;;;10.58;80.01
76060;BME280;64759;52.220;5.170;2023-04-29T04:06:23;101671.19;;;10.60;79.91
76060;BME280;64759;52.220;5.170;2023-04-29T04:08:49;101676.34;;;10.60;80.10
76060;BME280;64759;52.220;5.170;2023-04-29T04:11:23;101679.66;;;10.62;80.09
76060;BME280;64759;52.220;5.170;2023-04-29T04:13:54;101687.56;;;10.61;80.01
76060;BME280;64759;52.220;5.170;2023-04-29T04:16:20;101684.97;;;10.61;80.42
76060;BME280;64759;52.220;5.170;2023-04-29T04:18:46;101689.31;;;10.60;80.47
76060;BME280;64759;52.220;5.170;2023-04-29T04:21:12;101699.81;;;10.59;80.30
76060;BME280;64759;52.220;5.170;2023-04-29T04:23:40;101690.59;;;10.55;80.30
76060;BME280;64759;52.220;5.170;2023-04-29T04:26:07;101690.63;;;10.43;79.38
76060;BME280;64759;52.220;5.170;2023-04-29T04:28:58;101686.63;;;10.39;79.38
76060;BME280;64759;52.220;5.170;2023-04-29T04:31:30;101689.22;;;10.50;79.61
76060;BME280;64759;52.220;5.170;2023-04-29T04:33:56;101696.63;;;10.55;79.56
76060;BME280;64759;52.220;5.170;2023-04-29T04:36:24;101689.44;;;10.59;79.88
76060;BME280;64759;52.220;5.170;2023-04-29T04:38:50;101696.84;;;10.63;79.83
76060;BME280;64759;52.220;5.170;2023-04-29T04:41:15;101704.25;;;10.68;79.91
76060;BME280;64759;52.220;5.170;2023-04-29T04:43:43;101707.53;;;10.70;79.62
76060;BME280;64759;52.220;5.170;2023-04-29T04:46:35;101710.97;;;10.70;79.84
76060;BME280;64759;52.220;5.170;2023-04-29T04:49:07;101714.47;;;10.69;80.20
76060;BME280;64759;52.220;5.170;2023-04-29T04:51:39;101717.91;;;10.70;80.14
76060;BME280;64759;52.220;5.170;2023-04-29T04:54:05;101716.84;;;10.72;80.34
76060;BME280;64759;52.220;5.170;2023-04-29T04:56:31;101726.97;;;10.75;80.41
76060;BME280;64759;52.220;5.170;2023-04-29T04:58:56;101729.78;;;10.72;80.43
76060;BME280;64759;52.220;5.170;2023-04-29T05:01:22;101726.13;;;10.75;80.55
76060;BME280;64759;52.220;5.170;2023-04-29T05:03:48;101732.97;;;10.76;80.52
76060;BME280;64759;52.220;5.170;2023-04-29T05:06:13;101734.59;;;10.77;80.58
76060;BME280;64759;52.220;5.170;2023-04-29T05:08:43;101732.25;;;10.74;80.47
76060;BME280;64759;52.220;5.170;2023-04-29T05:11:19;101731.31;;;10.75;80.46
76060;BME280;64759;52.220;5.170;2023-04-29T05:13:57;101736.38;;;10.76;80.66
76060;BME280;64759;52.220;5.170;2023-04-29T05:16:22;101741.53;;;10.76;80.50
76060;BME280;64759;52.220;5.170;2023-04-29T05:18:48;101743.69;;;10.71;80.77
76060;BME280;64759;52.220;5.170;2023-04-29T05:21:15;101753.94;;;10.73;80.91
76060;BME280;64759;52.220;5.170;2023-04-29T05:23:41;101748.63;;;10.74;81.07
76060;BME280;64759;52.220;5.170;2023-04-29T05:26:07;101763.81;;;10.79;80.79
76060;BME280;64759;52.220;5.170;2023-04-29T05:28:34;101759.81;;;10.75;80.65
76060;BME280;64759;52.220;5.170;2023-04-29T05:31:00;101768.66;;;10.72;80.43
76060;BME280;64759;52.220;5.170;2023-04-29T05:33:25;101763.34;;;10.74;80.87
76060;BME280;64759;52.220;5.170;2023-04-29T05:35:51;101772.16;;;10.82;80.59
76060;BME280;64759;52.220;5.170;2023-04-29T05:38:16;101781.34;;;10.86;80.08
76060;BME280;64759;52.220;5.170;2023-04-29T05:40:56;101774.03;;;10.91;79.74
76060;BME280;64759;52.220;5.170;2023-04-29T05:43:22;101783.81;;;10.88;79.73
76060;BME280;64759;52.220;5.170;2023-04-29T05:45:49;101777.94;;;10.86;79.39
76060;BME280;64759;52.220;5.170;2023-04-29T05:48:15;101776.06;;;10.77;78.82
76060;BME280;64759;52.220;5.170;2023-04-29T05:50:48;101780.06;;;10.81;78.82
76060;BME280;64759;52.220;5.170;2023-04-29T05:53:15;101791.69;;;10.86;78.86
76060;BME280;64759;52.220;5.170;2023-04-29T05:55:41;101782.78;;;10.90;78.32
76060;BME280;64759;52.220;5.170;2023-04-29T05:58:10;101794.56;;;10.83;78.46
76060;BME280;64759;52.220;5.170;2023-04-29T06:00:35;101802.16;;;10.96;78.51
76060;BME280;64759;52.220;5.170;2023-04-29T06:03:09;101799.59;;;10.85;78.05
76060;BME280;64759;52.220;5.170;2023-04-29T06:05:37;101804.44;;;10.89;78.25
76060;BME280;64759;52.220;5.170;2023-04-29T06:08:29;101804.66;;;10.97;78.21
76060;BME280;64759;52.220;5.170;2023-04-29T06:11:02;101808.28;;;11.17;78.10
76060;BME280;64759;52.220;5.170;2023-04-29T06:13:30;101812.03;;;11.24;77.55
76060;BME280;64759;52.220;5.170;2023-04-29T06:15:58;101820.72;;;11.34;77.38
76060;BME280;64759;52.220;5.170;2023-04-29T06:18:28;101826.22;;;11.52;76.08
76060;BME280;64759;52.220;5.170;2023-04-29T06:20:54;101825.72;;;11.69;74.62
76060;BME280;64759;52.220;5.170;2023-04-29T06:23:19;101838.00;;;11.88;74.62
76060;BME280;64759;52.220;5.170;2023-04-29T06:25:45;101835.00;;;12.03;73.59
76060;BME280;64759;52.220;5.170;2023-04-29T06:28:10;101845.25;;;12.05;73.69
76060;BME280;64759;52.220;5.170;2023-04-29T06:30:36;101844.84;;;12.09;73.76
76060;BME280;64759;52.220;5.170;2023-04-29T06:33:01;101844.06;;;12.09;73.52
76060;BME280;64759;52.220;5.170;2023-04-29T06:35:26;101852.13;;;11.95;73.37
76060;BME280;64759;52.220;5.170;2023-04-29T06:38:07;101844.97;;;11.87;73.43
76060;BME280;64759;52.220;5.170;2023-04-29T06:40:52;101863.41;;;11.84;73.68
76060;BME280;64759;52.220;5.170;2023-04-29T06:43:36;101861.94;;;11.91;74.08
76060;BME280;64759;52.220;5.170;2023-04-29T06:46:26;101870.13;;;11.87;74.09
76060;BME280;64759;52.220;5.170;2023-04-29T06:49:00;101868.00;;;11.80;74.21
76060;BME280;64759;52.220;5.170;2023-04-29T06:51:30;101878.44;;;11.69;74.67
76060;BME280;64759;52.220;5.170;2023-04-29T06:53:57;101874.53;;;11.64;75.17
76060;BME280;64759;52.220;5.170;2023-04-29T06:56:22;101872.34;;;11.91;74.75
76060;BME280;64759;52.220;5.170;2023-04-29T06:58:48;101881.09;;;12.11;74.78
76060;BME280;64759;52.220;5.170;2023-04-29T07:01:13;101879.75;;;12.37;74.56
76060;BME280;64759;52.220;5.170;2023-04-29T07:03:39;101881.72;;;12.65;73.82
76060;BME280;64759;52.220;5.170;2023-04-29T07:06:04;101880.25;;;12.72;72.85
76060;BME280;64759;52.220;5.170;2023-04-29T07:08:30;101890.63;;;12.72;71.61
76060;BME280;64759;52.220;5.170;2023-04-29T07:10:57;101895.22;;;12.59;70.80
76060;BME280;64759;52.220;5.170;2023-04-29T07:13:24;101901.63;;;12.55;70.84
76060;BME280;64759;52.220;5.170;2023-04-29T07:15:49;101906.66;;;12.36;71.06
76060;BME280;64759;52.220;5.170;2023-04-29T07:18:15;101905.88;;;12.35;70.93
76060;BME280;64759;52.220;5.170;2023-04-29T07:20:42;101916.75;;;12.29;71.37
76060;BME280;64759;52.220;5.170;2023-04-29T07:23:08;101917.59;;;12.30;71.37
76060;BME280;64759;52.220;5.170;2023-04-29T07:25:34;101918.03;;;12.35;71.20
76060;BME280;64759;52.220;5.170;2023-04-29T07:28:00;101920.38;;;12.38;70.54
76060;BME280;64759;52.220;5.170;2023-04-29T07:30:26;101925.44;;;12.60;70.38
76060;BME280;64759;52.220;5.170;2023-04-29T07:32:52;101939.50;;;12.58;70.40
76060;BME280;64759;52.220;5.170;2023-04-29T07:35:17;101937.78;;;12.47;69.04
76060;BME280;64759;52.220;5.170;2023-04-29T07:37:44;101933.72;;;12.54;69.85
76060;BME280;64759;52.220;5.170;2023-04-29T07:40:10;101935.59;;;12.42;70.06
76060;BME280;64759;52.220;5.170;2023-04-29T07:42:36;101935.25;;;12.77;69.60
76060;BME280;64759;52.220;5.170;2023-04-29T07:45:05;101931.94;;;12.75;69.23
76060;BME280;64759;52.220;5.170;2023-04-29T07:47:32;101936.47;;;13.03;69.24
76060;BME280;64759;52.220;5.170;2023-04-29T07:49:57;101933.53;;;13.18;68.73
76060;BME280;64759;52.220;5.170;2023-04-29T07:52:23;101939.78;;;13.36;68.43
76060;BME280;64759;52.220;5.170;2023-04-29T07:54:48;101939.34;;;13.31;67.65
76060;BME280;64759;52.220;5.170;2023-04-29T07:57:14;101954.50;;;13.16;66.96
76060;BME280;64759;52.220;5.170;2023-04-29T07:59:39;101951.34;;;13.22;67.17
76060;BME280;64759;52.220;5.170;2023-04-29T08:02:05;101959.84;;;13.64;66.91
76060;BME280;64759;52.220;5.170;2023-04-29T08:04:31;101961.69;;;14.21;66.16
76060;BME280;64759;52.220;5.170;2023-04-29T08:07:03;101963.38;;;14.31;64.85
76060;BME280;64759;52.220;5.170;2023-04-29T08:09:29;101963.75;;;14.17;64.51
76060;BME280;64759;52.220;5.170;2023-04-29T08:11:54;101965.53;;;14.17;63.22
76060;BME280;64759;52.220;5.170;2023-04-29T08:14:19;101969.69;;;14.38;63.77
76060;BME280;64759;52.220;5.170;2023-04-29T08:16:45;101976.09;;;14.63;64.28
76060;BME280;64759;52.220;5.170;2023-04-29T08:19:10;101970.19;;;15.17;62.12
76060;BME280;64759;52.220;5.170;2023-04-29T08:21:36;101965.38;;;15.77;60.48
76060;BME280;64759;52.220;5.170;2023-04-29T08:24:02;101968.00;;;16.12;57.29
76060;BME280;64759;52.220;5.170;2023-04-29T08:26:27;101972.56;;;16.45;56.59
76060;BME280;64759;52.220;5.170;2023-04-29T08:28:53;101970.50;;;17.00;56.18
76060;BME280;64759;52.220;5.170;2023-04-29T08:31:19;101978.31;;;17.59;54.20
76060;BME280;64759;52.220;5.170;2023-04-29T08:33:45;101972.78;;;17.71;52.87
76060;BME280;64759;52.220;5.170;2023-04-29T08:36:11;101975.72;;;17.68;53.30
76060;BME280;64759;52.220;5.170;2023-04-29T08:38:36;101981.53;;;18.11;50.64
76060;BME280;64759;52.220;5.170;2023-04-29T08:41:02;101985.16;;;18.43;51.84
76060;BME280;64759;52.220;5.170;2023-04-29T08:43:28;101984.19;;;18.27;49.77
76060;BME280;64759;52.220;5.170;2023-04-29T08:45:53;101985.19;;;18.67;48.62
76060;BME280;64759;52.220;5.170;2023-04-29T08:48:20;101979.75;;;18.68;49.24
76060;BME280;64759;52.220;5.170;2023-04-29T08:50:45;101981.88;;;19.36;48.52
76060;BME280;64759;52.220;5.170;2023-04-29T08:53:12;101987.19;;;19.58;47.21
76060;BME280;64759;52.220;5.170;2023-04-29T08:55:45;101995.34;;;19.72;46.98
76060;BME280;64759;52.220;5.170;2023-04-29T08:58:12;101995.72;;;19.91;46.66
76060;BME280;64759;52.220;5.170;2023-04-29T09:00:42;102004.09;;;20.17;44.35
76060;BME280;64759;52.220;5.170;2023-04-29T09:03:20;101997.19;;;19.94;44.33
76060;BME280;64759;52.220;5.170;2023-04-29T09:05:52;102001.75;;;19.77;44.86
76060;BME280;64759;52.220;5.170;2023-04-29T09:08:22;102015.34;;;19.42;45.08
76060;BME280;64759;52.220;5.170;2023-04-29T09:10:49;102012.72;;;19.50;46.83
76060;BME280;64759;52.220;5.170;2023-04-29T09:13:44;102012.50;;;19.60;45.24
76060;BME280;64759;52.220;5.170;2023-04-29T09:16:14;102010.53;;;19.53;44.46
76060;BME280;64759;52.220;5.170;2023-04-29T09:18:50;102010.59;;;19.76;45.43
76060;BME280;64759;52.220;5.170;2023-04-29T09:23:41;102016.28;;;20.41;44.22
76060;BME280;64759;52.220;5.170;2023-04-29T09:26:07;102008.41;;;20.78;43.96
76060;BME280;64759;52.220;5.170;2023-04-29T09:28:34;102009.22;;;20.94;43.51
76060;BME280;64759;52.220;5.170;2023-04-29T09:31:01;102017.22;;;21.00;40.83
76060;BME280;64759;52.220;5.170;2023-04-29T09:33:31;102026.66;;;20.95;41.61
76060;BME280;64759;52.220;5.170;2023-04-29T09:35:56;102020.16;;;21.20;40.94
76060;BME280;64759;52.220;5.170;2023-04-29T09:38:23;102017.38;;;20.84;41.36
76060;BME280;64759;52.220;5.170;2023-04-29T09:40:48;102018.00;;;20.86;39.83
76060;BME280;64759;52.220;5.170;2023-04-29T09:43:16;102027.91;;;20.99;40.23
76060;BME280;64759;52.220;5.170;2023-04-29T09:45:46;102027.06;;;21.06;39.63
76060;BME280;64759;52.220;5.170;2023-04-29T09:48:13;102034.88;;;21.29;39.99
76060;BME280;64759;52.220;5.170;2023-04-29T09:50:41;102033.47;;;21.04;39.34
76060;BME280;64759;52.220;5.170;2023-04-29T09:53:10;102036.22;;;20.58;40.61
76060;BME280;64759;52.220;5.170;2023-04-29T09:55:56;102037.13;;;20.65;40.88
76060;BME280;64759;52.220;5.170;2023-04-29T09:58:32;102032.47;;;20.53;41.20
76060;BME280;64759;52.220;5.170;2023-04-29T10:01:02;102034.28;;;20.90;40.62
76060;BME280;64759;52.220;5.170;2023-04-29T10:03:33;102033.50;;;20.66;39.85
76060;BME280;64759;52.220;5.170;2023-04-29T10:05:59;102027.63;;;20.79;39.51
76060;BME280;64759;52.220;5.170;2023-04-29T10:08:26;102033.97;;;21.07;39.45
76060;BME280;64759;52.220;5.170;2023-04-29T10:10:53;102028.88;;;21.06;38.78
76060;BME280;64759;52.220;5.170;2023-04-29T10:13:24;102038.25;;;21.23;39.79
76060;BME280;64759;52.220;5.170;2023-04-29T10:15:59;102032.16;;;21.37;38.54
76060;BME280;64759;52.220;5.170;2023-04-29T10:18:36;102040.63;;;21.83;37.82
76060;BME280;64759;52.220;5.170;2023-04-29T10:21:02;102030.84;;;22.12;37.92
76060;BME280;64759;52.220;5.170;2023-04-29T10:23:32;102037.25;;;22.25;37.15
76060;BME280;64759;52.220;5.170;2023-04-29T10:25:59;102036.06;;;22.27;36.47
76060;BME280;64759;52.220;5.170;2023-04-29T10:28:26;102040.41;;;21.48;37.73
76060;BME280;64759;52.220;5.170;2023-04-29T10:30:55;102040.03;;;21.52;38.24
76060;BME280;64759;52.220;5.170;2023-04-29T10:33:22;102031.88;;;21.46;38.22
76060;BME280;64759;52.220;5.170;2023-04-29T10:35:48;102032.66;;;21.03;38.11
76060;BME280;64759;52.220;5.170;2023-04-29T10:38:23;102032.66;;;21.03;38.51
76060;BME280;64759;52.220;5.170;2023-04-29T10:40:50;102044.34;;;20.49;39.21
76060;BME280;64759;52.220;5.170;2023-04-29T10:43:24;102034.88;;;20.40;40.32
76060;BME280;64759;52.220;5.170;2023-04-29T10:48:42;102036.00;;;20.82;39.49
76060;BME280;64759;52.220;5.170;2023-04-29T10:51:07;102030.72;;;20.82;39.25
76060;BME280;64759;52.220;5.170;2023-04-29T10:53:33;102034.84;;;21.00;38.93
76060;BME280;64759;52.220;5.170;2023-04-29T10:56:04;102028.06;;;21.05;39.40
76060;BME280;64759;52.220;5.170;2023-04-29T11:01:06;102038.59;;;21.20;39.11
76060;BME280;64759;52.220;5.170;2023-04-29T11:03:55;102025.16;;;21.15;38.66
76060;BME280;64759;52.220;5.170;2023-04-29T11:06:45;102033.69;;;21.17;37.82
76060;BME280;64759;52.220;5.170;2023-04-29T11:11:42;102033.91;;;20.93;37.58
76060;BME280;64759;52.220;5.170;2023-04-29T11:14:08;102041.97;;;20.91;37.38
76060;BME280;64759;52.220;5.170;2023-04-29T11:16:35;102043.06;;;21.19;37.95
76060;BME280;64759;52.220;5.170;2023-04-29T11:19:07;102041.78;;;21.44;38.05
76060;BME280;64759;52.220;5.170;2023-04-29T11:21:34;102045.69;;;21.48;36.10
76060;BME280;64759;52.220;5.170;2023-04-29T11:24:01;102041.38;;;21.47;35.37
76060;BME280;64759;52.220;5.170;2023-04-29T11:26:27;102045.50;;;21.35;36.38
76060;BME280;64759;52.220;5.170;2023-04-29T11:28:53;102045.88;;;21.32;36.46
76060;BME280;64759;52.220;5.170;2023-04-29T11:31:25;102042.69;;;21.37;36.32
76060;BME280;64759;52.220;5.170;2023-04-29T11:33:52;102036.88;;;21.41;36.12
76060;BME280;64759;52.220;5.170;2023-04-29T11:36:18;102042.84;;;21.35;36.06
76060;BME280;64759;52.220;5.170;2023-04-29T11:38:44;102042.69;;;21.52;35.10
76060;BME280;64759;52.220;5.170;2023-04-29T11:41:10;102048.94;;;21.50;36.48
76060;BME280;64759;52.220;5.170;2023-04-29T11:43:35;102049.84;;;21.43;36.05
76060;BME280;64759;52.220;5.170;2023-04-29T11:46:11;102043.06;;;21.19;36.80
76060;BME280;64759;52.220;5.170;2023-04-29T11:48:45;102046.78;;;21.10;35.62
76060;BME280;64759;52.220;5.170;2023-04-29T11:51:11;102051.50;;;21.29;36.10
76060;BME280;64759;52.220;5.170;2023-04-29T11:53:36;102052.06;;;21.39;35.61
76060;BME280;64759;52.220;5.170;2023-04-29T11:56:02;102058.56;;;21.58;34.81
76060;BME280;64759;52.220;5.170;2023-04-29T11:58:27;102052.69;;;21.12;35.12
76060;BME280;64759;52.220;5.170;2023-04-29T12:00:52;102054.56;;;21.18;35.29
76060;BME280;64759;52.220;5.170;2023-04-29T12:03:19;102058.84;;;21.19;35.73
76060;BME280;64759;52.220;5.170;2023-04-29T12:05:55;102051.03;;;21.11;35.71
76060;BME280;64759;52.220;5.170;2023-04-29T12:08:21;102048.41;;;21.26;35.48
76060;BME280;64759;52.220;5.170;2023-04-29T12:10:48;102051.78;;;21.49;35.47
76060;BME280;64759;52.220;5.170;2023-04-29T12:13:15;102047.50;;;21.33;35.22
76060;BME280;64759;52.220;5.170;2023-04-29T12:15:40;102049.69;;;21.30;35.02
76060;BME280;64759;52.220;5.170;2023-04-29T12:18:07;102047.22;;;21.14;35.48
76060;BME280;64759;52.220;5.170;2023-04-29T12:20:32;102050.03;;;21.12;35.68
76060;BME280;64759;52.220;5.170;2023-04-29T12:23:16;102049.41;;;21.25;34.69
76060;BME280;64759;52.220;5.170;2023-04-29T12:25:56;102047.25;;;20.91;34.78
76060;BME280;64759;52.220;5.170;2023-04-29T12:28:22;102050.44;;;21.01;34.96
76060;BME280;64759;52.220;5.170;2023-04-29T12:30:50;102042.38;;;21.03;35.36
76060;BME280;64759;52.220;5.170;2023-04-29T12:33:22;102049.47;;;21.02;35.24
76060;BME280;64759;52.220;5.170;2023-04-29T12:35:49;102044.44;;;20.93;34.74
76060;BME280;64759;52.220;5.170;2023-04-29T12:38:20;102047.00;;;21.01;34.50
76060;BME280;64759;52.220;5.170;2023-04-29T12:40:46;102051.22;;;21.10;34.98
76060;BME280;64759;52.220;5.170;2023-04-29T12:43:12;102056.97;;;20.91;33.91
76060;BME280;64759;52.220;5.170;2023-04-29T12:45:37;102049.16;;;20.82;33.96
76060;BME280;64759;52.220;5.170;2023-04-29T12:48:04;102055.53;;;20.88;33.92
76060;BME280;64759;52.220;5.170;2023-04-29T12:50:37;102060.59;;;20.90;34.29
76060;BME280;64759;52.220;5.170;2023-04-29T12:53:07;102054.91;;;21.01;33.36
76060;BME280;64759;52.220;5.170;2023-04-29T12:55:34;102064.25;;;21.03;33.47
76060;BME280;64759;52.220;5.170;2023-04-29T12:58:02;102065.00;;;20.74;33.28
76060;BME280;64759;52.220;5.170;2023-04-29T13:00:27;102069.41;;;20.97;32.93
76060;BME280;64759;52.220;5.170;2023-04-29T13:02:52;102065.25;;;21.02;32.50
76060;BME280;64759;52.220;5.170;2023-04-29T13:05:18;102064.34;;;20.95;32.92
76060;BME280;64759;52.220;5.170;2023-04-29T13:07:43;102064.41;;;20.87;32.85
76060;BME280;64759;52.220;5.170;2023-04-29T13:10:09;102068.75;;;20.80;32.89
76060;BME280;64759;52.220;5.170;2023-04-29T13:12:36;102066.81;;;20.74;32.63
76060;BME280;64759;52.220;5.170;2023-04-29T13:15:02;102073.59;;;20.54;33.75
76060;BME280;64759;52.220;5.170;2023-04-29T13:17:28;102069.44;;;20.74;34.25
76060;BME280;64759;52.220;5.170;2023-04-29T13:19:53;102069.72;;;20.79;33.66
76060;BME280;64759;52.220;5.170;2023-04-29T13:22:19;102066.31;;;20.78;32.69